TAF KSJS
KSJS 270547Z 2706/2806 VRB03KT P6SM BKN100 FM271500 20006KT P6SM SCT120 SCT250 FM280300 VRB05KT P6SM SCT120 WS020/25035KT=
METAR KSJS
WC KSJS
WS KSJS
WV KSJS